createdAt,value
2018-10-07T00:01:17.302Z,11.60
2018-10-07T00:03:45.987Z,11.70
2018-10-07T00:06:14.741Z,11.60
2018-10-07T00:08:43.495Z,11.70
2018-10-07T00:11:12.208Z,11.80
2018-10-07T00:13:40.936Z,11.80
2018-10-07T00:16:09.583Z,11.80
2018-10-07T00:18:38.877Z,11.80
2018-10-07T00:21:07.609Z,11.70
2018-10-07T00:23:36.296Z,11.70
2018-10-07T00:26:05.066Z,11.70
2018-10-07T00:28:33.825Z,11.60
2018-10-07T00:31:02.539Z,11.60
2018-10-07T00:33:33.642Z,11.60
2018-10-07T00:36:03.104Z,11.60
2018-10-07T00:38:33.106Z,11.70
2018-10-07T00:41:01.798Z,11.60
2018-10-07T00:43:30.420Z,11.60
2018-10-07T00:45:59.142Z,11.60
2018-10-07T00:48:32.818Z,11.60
2018-10-07T00:51:01.533Z,11.60
2018-10-07T00:53:30.399Z,11.60
2018-10-07T00:55:59.218Z,11.60
2018-10-07T00:58:27.908Z,11.60
2018-10-07T01:00:57.054Z,11.50
2018-10-07T01:03:25.891Z,11.50
2018-10-07T01:05:54.698Z,11.60
2018-10-07T01:08:24.298Z,11.60
2018-10-07T01:10:54.014Z,11.60
2018-10-07T01:13:22.739Z,11.60
2018-10-07T01:15:51.372Z,11.60
2018-10-07T01:18:20.104Z,11.60
2018-10-07T01:20:48.789Z,11.60
2018-10-07T01:23:17.631Z,11.60
2018-10-07T01:25:46.332Z,11.60
2018-10-07T01:28:15.074Z,11.60
2018-10-07T01:30:43.779Z,11.60
2018-10-07T01:33:12.537Z,11.60
2018-10-07T01:35:41.160Z,11.60
2018-10-07T01:38:09.880Z,11.60
2018-10-07T01:40:38.547Z,11.60
2018-10-07T01:43:07.367Z,11.70
2018-10-07T01:45:38.762Z,11.70
2018-10-07T01:48:07.475Z,11.70
2018-10-07T01:50:36.170Z,11.60
2018-10-07T01:53:05.565Z,11.60
2018-10-07T01:55:34.262Z,11.50
2018-10-07T01:58:02.933Z,11.60
2018-10-07T02:00:31.565Z,11.50
2018-10-07T02:03:00.305Z,11.50
2018-10-07T02:05:28.941Z,11.40
2018-10-07T02:07:57.674Z,11.40
2018-10-07T02:10:26.482Z,11.20
2018-10-07T02:12:55.774Z,11.20
2018-10-07T02:15:24.570Z,11.20
2018-10-07T02:17:53.364Z,11.20
2018-10-07T02:20:22.051Z,11.10
2018-10-07T02:22:51.007Z,11.00
2018-10-07T02:25:19.689Z,11.00
2018-10-07T02:27:48.336Z,10.90
2018-10-07T02:30:17.062Z,10.90
2018-10-07T02:32:45.684Z,10.80
2018-10-07T02:35:15.166Z,10.80
2018-10-07T02:37:43.858Z,10.80
2018-10-07T02:40:13.096Z,10.80
2018-10-07T02:42:48.566Z,10.80
2018-10-07T02:45:17.266Z,10.70
2018-10-07T02:47:45.991Z,10.70
2018-10-07T02:50:19.108Z,10.60
2018-10-07T02:52:49.740Z,10.60
2018-10-07T02:55:23.413Z,10.60
2018-10-07T02:57:53.951Z,10.50
2018-10-07T03:00:27.082Z,10.60
2018-10-07T03:02:55.730Z,10.70
2018-10-07T03:05:24.446Z,10.60
2018-10-07T03:07:53.170Z,10.50
2018-10-07T03:10:21.933Z,10.50
2018-10-07T03:12:50.620Z,10.50
2018-10-07T03:15:19.371Z,10.50
2018-10-07T03:17:47.970Z,10.40
2018-10-07T03:20:16.669Z,10.40
2018-10-07T03:22:45.892Z,10.30
2018-10-07T03:25:14.517Z,10.40
2018-10-07T03:27:43.165Z,10.40
2018-10-07T03:30:12.679Z,10.30
2018-10-07T03:32:41.447Z,10.40
2018-10-07T03:35:10.090Z,10.40
2018-10-07T03:37:38.825Z,10.30
2018-10-07T03:40:07.555Z,10.30
2018-10-07T03:42:36.278Z,10.20
2018-10-07T03:45:05.180Z,10.10
2018-10-07T03:47:33.860Z,10.20
2018-10-07T03:50:02.496Z,10.20
2018-10-07T03:52:31.336Z,10.10
2018-10-07T03:54:59.966Z,10.00
2018-10-07T03:57:34.218Z,10.00
2018-10-07T04:00:03.042Z,10.00
2018-10-07T04:02:31.981Z,10.00
2018-10-07T04:05:00.685Z,10.00
2018-10-07T04:07:29.419Z,9.90
2018-10-07T04:09:58.081Z,9.90
2018-10-07T04:12:26.754Z,9.90
2018-10-07T04:14:56.043Z,9.90
2018-10-07T04:17:24.760Z,9.90
2018-10-07T04:19:53.470Z,9.80
2018-10-07T04:22:22.142Z,9.70
2018-10-07T04:24:51.944Z,9.80
2018-10-07T04:27:21.503Z,9.70
2018-10-07T04:29:50.154Z,9.70
2018-10-07T04:32:18.740Z,9.70
2018-10-07T04:34:47.379Z,9.60
2018-10-07T04:37:16.051Z,9.60
2018-10-07T04:39:44.766Z,9.60
2018-10-07T04:42:13.424Z,9.60
2018-10-07T04:44:42.119Z,9.60
2018-10-07T04:47:10.718Z,9.50
2018-10-07T04:49:39.358Z,9.60
2018-10-07T04:52:08.117Z,9.60
2018-10-07T04:54:36.837Z,9.60
2018-10-07T04:57:05.551Z,9.50
2018-10-07T04:59:34.197Z,9.50
2018-10-07T05:02:02.889Z,9.40
2018-10-07T05:04:32.777Z,9.30
2018-10-07T05:07:01.667Z,9.30
2018-10-07T05:09:30.466Z,9.30
2018-10-07T05:12:01.202Z,9.20
2018-10-07T05:14:30.050Z,9.20
2018-10-07T05:16:59.713Z,9.10
2018-10-07T05:19:28.399Z,9.20
2018-10-07T05:21:57.041Z,9.10
2018-10-07T05:24:25.750Z,9.10
2018-10-07T05:26:54.554Z,9.00
2018-10-07T05:29:23.842Z,8.90
2018-10-07T05:31:52.562Z,8.90
2018-10-07T05:34:21.791Z,8.80
2018-10-07T05:36:51.856Z,8.90
2018-10-07T05:39:20.585Z,8.90
2018-10-07T05:41:49.254Z,8.80
2018-10-07T05:44:17.952Z,8.80
2018-10-07T05:46:46.623Z,8.70
2018-10-07T05:49:15.292Z,8.60
2018-10-07T05:51:43.925Z,8.60
2018-10-07T05:54:12.740Z,8.60
2018-10-07T05:56:41.471Z,8.50
2018-10-07T05:59:10.349Z,8.50
2018-10-07T06:01:41.794Z,8.40
2018-10-07T06:04:22.474Z,8.40
2018-10-07T06:06:51.486Z,8.30
2018-10-07T06:09:26.733Z,8.30
2018-10-07T06:11:55.976Z,8.20
2018-10-07T06:14:35.846Z,8.20
2018-10-07T06:17:05.876Z,8.10
2018-10-07T06:19:34.690Z,8.10
2018-10-07T06:22:05.064Z,8.10
2018-10-07T06:24:35.237Z,8.10
2018-10-07T06:27:04.536Z,8.00
2018-10-07T06:29:33.329Z,8.00
2018-10-07T06:32:02.299Z,8.00
2018-10-07T06:34:31.001Z,7.90
2018-10-07T06:36:59.870Z,7.90
2018-10-07T06:39:29.281Z,7.90
2018-10-07T06:41:58.350Z,7.90
2018-10-07T06:44:27.081Z,7.90
2018-10-07T06:46:56.017Z,7.90
2018-10-07T06:49:25.876Z,7.90
2018-10-07T06:51:54.729Z,8.00
2018-10-07T06:54:23.557Z,8.00
2018-10-07T06:56:52.851Z,8.10
2018-10-07T06:59:21.745Z,8.10
2018-10-07T07:01:50.763Z,8.10
2018-10-07T07:04:19.775Z,8.20
2018-10-07T07:06:50.205Z,8.30
2018-10-07T07:09:19.814Z,8.30
2018-10-07T07:11:48.726Z,8.50
2018-10-07T07:14:17.486Z,8.50
2018-10-07T07:16:48.484Z,8.60
2018-10-07T07:19:18.162Z,8.70
2018-10-07T07:21:46.925Z,8.90
2018-10-07T07:24:16.536Z,9.00
2018-10-07T07:26:45.425Z,9.10
2018-10-07T07:29:14.150Z,9.10
2018-10-07T07:31:42.871Z,9.20
2018-10-07T07:34:12.401Z,9.30
2018-10-07T07:36:41.169Z,9.30
2018-10-07T07:39:10.017Z,9.30
2018-10-07T07:41:38.743Z,9.40
2018-10-07T07:44:07.700Z,9.40
2018-10-07T07:46:37.002Z,9.60
2018-10-07T07:49:05.954Z,9.80
2018-10-07T07:51:34.736Z,10.10
2018-10-07T07:54:03.642Z,10.40
2018-10-07T07:56:32.421Z,10.60
2018-10-07T07:59:01.310Z,10.70
2018-10-07T08:01:30.245Z,10.80
2018-10-07T08:03:58.999Z,10.80
2018-10-07T08:06:27.760Z,10.90
2018-10-07T08:08:56.689Z,11.10
2018-10-07T08:11:25.584Z,11.20
2018-10-07T08:13:54.533Z,11.20
2018-10-07T08:16:23.429Z,11.40
2018-10-07T08:18:52.339Z,11.50
2018-10-07T08:21:21.102Z,11.70
2018-10-07T08:23:49.848Z,11.80
2018-10-07T08:26:19.480Z,11.90
2018-10-07T08:28:48.353Z,12.00
2018-10-07T08:31:17.295Z,12.10
2018-10-07T08:33:46.033Z,12.10
2018-10-07T08:36:14.992Z,12.20
2018-10-07T08:38:44.270Z,12.20
2018-10-07T08:41:12.959Z,12.30
2018-10-07T08:43:42.406Z,12.30
2018-10-07T08:46:11.174Z,12.40
2018-10-07T08:48:41.114Z,12.40
2018-10-07T08:51:09.978Z,12.50
2018-10-07T08:53:38.680Z,12.40
2018-10-07T08:56:07.661Z,12.30
2018-10-07T08:58:36.857Z,12.40
2018-10-07T09:01:07.911Z,12.60
2018-10-07T09:03:36.679Z,12.70
2018-10-07T09:06:05.451Z,12.70
2018-10-07T09:08:34.153Z,12.80
2018-10-07T09:11:03.456Z,12.90
2018-10-07T09:13:33.626Z,12.90
2018-10-07T09:16:02.700Z,13.00
2018-10-07T09:18:31.362Z,13.00
2018-10-07T09:21:00.182Z,13.10
2018-10-07T09:23:29.000Z,13.10
2018-10-07T09:25:57.705Z,13.20
2018-10-07T09:28:26.480Z,13.30
2018-10-07T09:30:55.338Z,13.40
2018-10-07T09:33:24.079Z,13.50
2018-10-07T09:35:52.777Z,13.60
2018-10-07T09:38:21.733Z,13.70
2018-10-07T09:40:50.556Z,13.80
2018-10-07T09:43:19.404Z,13.80
2018-10-07T09:45:48.363Z,13.90
2018-10-07T09:48:17.194Z,14.00
2018-10-07T09:50:46.979Z,14.10
2018-10-07T09:53:15.811Z,14.10
2018-10-07T09:55:44.788Z,14.20
2018-10-07T09:58:13.595Z,14.30
2018-10-07T10:00:42.480Z,14.40
2018-10-07T10:03:12.653Z,14.50
2018-10-07T10:05:41.610Z,14.60
2018-10-07T10:08:10.500Z,14.70
2018-10-07T10:10:40.246Z,14.70
2018-10-07T10:13:10.606Z,14.80
2018-10-07T10:15:39.670Z,15.00
2018-10-07T10:18:12.956Z,15.10
2018-10-07T10:20:49.079Z,15.20
2018-10-07T10:23:28.061Z,15.20
2018-10-07T10:26:07.658Z,15.40
2018-10-07T10:29:16.074Z,15.40
2018-10-07T10:32:00.497Z,15.50
2018-10-07T10:35:38.267Z,15.60
2018-10-07T10:38:18.491Z,15.60
2018-10-07T10:40:52.910Z,15.70
2018-10-07T10:43:27.207Z,15.90
2018-10-07T10:46:01.789Z,16.10
2018-10-07T10:48:48.365Z,16.10
2018-10-07T10:51:24.927Z,16.30
2018-10-07T10:54:11.212Z,16.20
2018-10-07T10:56:48.520Z,16.40
2018-10-07T11:00:40.243Z,16.50
2018-10-07T11:05:21.477Z,16.40
2018-10-07T11:08:03.646Z,16.50
2018-10-07T11:10:42.008Z,16.80
2018-10-07T11:13:46.690Z,17.00
2018-10-07T11:16:26.869Z,17.10
2018-10-07T11:21:37.054Z,16.90
2018-10-07T11:24:11.997Z,17.00
2018-10-07T11:26:48.480Z,16.80
2018-10-07T11:30:25.646Z,17.00
2018-10-07T11:33:11.037Z,16.90
2018-10-07T11:35:48.095Z,16.70
2018-10-07T11:38:27.321Z,16.50
2018-10-07T11:41:23.225Z,16.30
2018-10-07T11:44:16.204Z,16.20
2018-10-07T11:46:57.893Z,16.30
2018-10-07T11:49:37.968Z,16.10
2018-10-07T11:53:18.428Z,16.20
2018-10-07T11:55:48.262Z,16.30
2018-10-07T11:58:21.592Z,16.40
2018-10-07T12:14:48.467Z,16.20
2018-10-07T12:17:23.257Z,16.20
2018-10-07T12:19:52.186Z,16.50
2018-10-07T12:22:23.253Z,16.50
2018-10-07T12:24:54.926Z,16.70
2018-10-07T12:27:31.718Z,16.60
2018-10-07T12:30:07.716Z,16.70
2018-10-07T12:32:38.380Z,16.80
2018-10-07T12:35:11.048Z,17.00
2018-10-07T12:37:43.731Z,17.00
2018-10-07T12:40:17.975Z,16.60
2018-10-07T12:42:54.102Z,16.50
2018-10-07T12:45:23.232Z,16.30
2018-10-07T12:47:52.390Z,16.20
2018-10-07T12:50:21.552Z,16.10
2018-10-07T12:52:53.882Z,16.00
2018-10-07T12:55:23.298Z,16.00
2018-10-07T12:57:56.994Z,15.90
2018-10-07T13:00:30.334Z,16.00
2018-10-07T13:03:05.836Z,16.20
2018-10-07T13:08:20.477Z,16.50
2018-10-07T13:10:58.669Z,16.70
2018-10-07T13:13:38.858Z,16.90
2018-10-07T13:16:15.732Z,16.90
2018-10-07T13:18:49.176Z,16.80
2018-10-07T13:21:19.261Z,16.50
2018-10-07T13:23:50.280Z,16.10
2018-10-07T13:40:35.370Z,16.10
2018-10-07T13:43:24.975Z,16.80
2018-10-07T13:45:59.328Z,17.20
2018-10-07T13:48:30.910Z,17.20
2018-10-07T13:53:47.595Z,17.50
2018-10-07T13:56:19.901Z,17.30
2018-10-07T13:58:55.583Z,16.70
2018-10-07T14:01:24.718Z,16.20
2018-10-07T14:03:56.178Z,15.90
2018-10-07T14:06:28.514Z,15.90
2018-10-07T14:09:10.306Z,16.00
2018-10-07T14:11:42.713Z,16.00
2018-10-07T14:14:11.946Z,16.20
2018-10-07T14:16:42.276Z,16.30
2018-10-07T14:19:12.274Z,16.60
2018-10-07T14:21:42.818Z,16.80
2018-10-07T14:24:12.238Z,16.90
2018-10-07T14:26:42.122Z,17.00
2018-10-07T14:29:12.724Z,16.80
2018-10-07T14:31:42.754Z,16.50
2018-10-07T14:34:22.588Z,16.60
2018-10-07T14:36:57.124Z,16.40
2018-10-07T14:39:28.438Z,16.50
2018-10-07T14:42:11.569Z,16.70
2018-10-07T14:45:09.385Z,16.70
2018-10-07T14:48:00.414Z,16.70
2018-10-07T14:50:47.068Z,17.00
2018-10-07T14:53:45.121Z,16.90
2018-10-07T15:10:17.333Z,16.80
2018-10-07T15:12:47.759Z,16.90
2018-10-07T15:15:18.017Z,17.00
2018-10-07T15:17:47.406Z,17.00
2018-10-07T15:20:19.697Z,17.00
2018-10-07T15:23:08.117Z,17.10
2018-10-07T15:25:37.129Z,16.90
2018-10-07T15:28:07.311Z,16.80
2018-10-07T15:30:36.432Z,16.70
2018-10-07T15:33:06.181Z,16.60
2018-10-07T15:35:38.019Z,16.60
2018-10-07T15:38:15.117Z,16.40
2018-10-07T15:40:45.075Z,16.30
2018-10-07T15:43:14.078Z,15.90
2018-10-07T15:45:42.898Z,15.70
2018-10-07T15:48:12.000Z,15.60
2018-10-07T15:50:43.426Z,15.30
2018-10-07T15:53:13.040Z,15.10
2018-10-07T15:55:41.867Z,15.00
2018-10-07T15:58:10.757Z,14.90
2018-10-07T16:00:39.833Z,15.00
2018-10-07T16:03:09.017Z,15.00
2018-10-07T16:05:37.825Z,15.10
2018-10-07T16:08:07.062Z,15.00
2018-10-07T16:10:35.923Z,14.90
2018-10-07T16:13:05.817Z,14.70
2018-10-07T16:15:34.667Z,14.40
2018-10-07T16:18:03.873Z,14.20
2018-10-07T16:20:32.994Z,14.30
2018-10-07T16:23:02.040Z,14.20
2018-10-07T16:25:31.037Z,14.00
2018-10-07T16:28:00.114Z,13.90
2018-10-07T16:30:29.198Z,13.70
2018-10-07T16:32:58.076Z,13.50
2018-10-07T16:35:27.593Z,13.40
2018-10-07T16:37:56.563Z,13.30
2018-10-07T16:40:25.669Z,13.20
2018-10-07T16:42:54.586Z,13.10
2018-10-07T16:45:24.267Z,13.00
2018-10-07T16:47:52.902Z,13.00
2018-10-07T16:50:21.737Z,12.90
2018-10-07T16:52:50.786Z,12.70
2018-10-07T16:55:35.582Z,12.60
2018-10-07T16:58:04.364Z,12.50
2018-10-07T17:00:33.978Z,12.40
2018-10-07T17:03:02.725Z,12.30
2018-10-07T17:05:31.832Z,12.20
2018-10-07T17:08:00.679Z,12.00
2018-10-07T17:10:30.377Z,11.90
2018-10-07T17:12:59.347Z,11.80
2018-10-07T17:15:28.111Z,11.70
2018-10-07T17:17:57.672Z,11.60
2018-10-07T17:20:26.765Z,11.60
2018-10-07T17:22:55.665Z,11.50
2018-10-07T17:25:24.614Z,11.40
2018-10-07T17:27:53.376Z,11.40
2018-10-07T17:30:22.226Z,11.30
2018-10-07T17:32:51.192Z,11.30
2018-10-07T17:35:20.090Z,11.20
2018-10-07T17:37:49.101Z,11.10
2018-10-07T17:40:18.244Z,11.00
2018-10-07T17:42:47.341Z,11.00
2018-10-07T17:45:17.889Z,10.90
2018-10-07T17:47:47.810Z,10.80
2018-10-07T17:50:16.596Z,10.70
2018-10-07T17:52:46.131Z,10.70
2018-10-07T17:55:15.134Z,10.50
2018-10-07T17:57:43.938Z,10.50
2018-10-07T18:00:14.148Z,10.40
2018-10-07T18:02:43.224Z,10.40
2018-10-07T18:05:11.952Z,10.30
2018-10-07T18:07:40.748Z,10.30
2018-10-07T18:10:09.822Z,10.20
2018-10-07T18:12:38.986Z,10.20
2018-10-07T18:15:08.737Z,10.20
2018-10-07T18:17:37.504Z,10.10
2018-10-07T18:20:06.501Z,10.10
2018-10-07T18:22:35.407Z,10.10
2018-10-07T18:25:04.377Z,10.10
2018-10-07T18:27:33.276Z,10.00
2018-10-07T18:30:02.034Z,10.00
2018-10-07T18:32:30.820Z,10.00
2018-10-07T18:34:59.801Z,9.90
2018-10-07T18:37:28.773Z,9.90
2018-10-07T18:39:57.612Z,9.80
2018-10-07T18:42:26.545Z,9.80
2018-10-07T18:44:55.940Z,9.70
2018-10-07T18:47:25.958Z,9.70
2018-10-07T18:49:54.992Z,9.60
2018-10-07T18:52:23.953Z,9.60
2018-10-07T18:54:52.746Z,9.60
2018-10-07T18:57:21.743Z,9.60
2018-10-07T18:59:56.089Z,9.50
2018-10-07T19:02:25.123Z,9.50
2018-10-07T19:04:54.292Z,9.50
2018-10-07T19:07:23.146Z,9.40
2018-10-07T19:09:52.012Z,9.40
2018-10-07T19:12:20.737Z,9.40
2018-10-07T19:14:49.651Z,9.30
2018-10-07T19:17:20.294Z,9.30
2018-10-07T19:19:49.958Z,9.30
2018-10-07T19:22:18.893Z,9.30
2018-10-07T19:24:47.994Z,9.20
2018-10-07T19:27:16.945Z,9.30
2018-10-07T19:29:45.750Z,9.20
2018-10-07T19:32:14.740Z,9.20
2018-10-07T19:34:43.903Z,9.20
2018-10-07T19:37:12.981Z,9.20
2018-10-07T19:39:41.891Z,9.20
2018-10-07T19:42:11.521Z,9.10
2018-10-07T19:44:41.443Z,9.20
2018-10-07T19:47:10.580Z,9.10
2018-10-07T19:49:39.325Z,9.10
2018-10-07T19:52:08.022Z,9.10
2018-10-07T19:54:36.824Z,9.10
2018-10-07T19:57:06.602Z,9.10
2018-10-07T19:59:35.419Z,9.00
2018-10-07T20:02:04.891Z,9.00
2018-10-07T20:04:33.595Z,8.90
2018-10-07T20:07:02.509Z,8.90
2018-10-07T20:09:32.288Z,8.90
2018-10-07T20:12:01.228Z,8.80
2018-10-07T20:14:30.000Z,8.80
2018-10-07T20:16:58.993Z,8.80
2018-10-07T20:19:28.009Z,8.80
2018-10-07T20:21:57.033Z,8.70
2018-10-07T20:24:25.739Z,8.70
2018-10-07T20:26:54.549Z,8.70
2018-10-07T20:29:23.493Z,8.70
2018-10-07T20:31:52.301Z,8.60
2018-10-07T20:34:20.994Z,8.60
2018-10-07T20:36:50.636Z,8.60
2018-10-07T20:39:19.372Z,8.50
2018-10-07T20:41:48.310Z,8.50
2018-10-07T20:44:17.024Z,8.50
2018-10-07T20:46:45.810Z,8.50
2018-10-07T20:49:14.503Z,8.40
2018-10-07T20:51:43.269Z,8.40
2018-10-07T20:54:12.065Z,8.40
2018-10-07T20:56:40.829Z,8.40
2018-10-07T20:59:09.575Z,8.40
2018-10-07T21:01:38.450Z,8.40
2018-10-07T21:04:07.171Z,8.30
2018-10-07T21:06:36.134Z,8.30
2018-10-07T21:09:09.874Z,8.30
2018-10-07T21:11:39.996Z,8.30
2018-10-07T21:14:08.760Z,8.30
2018-10-07T21:16:38.218Z,8.20
2018-10-07T21:19:10.596Z,8.20
2018-10-07T21:21:39.342Z,8.20
2018-10-07T21:24:08.101Z,8.10
2018-10-07T21:26:36.810Z,8.10
2018-10-07T21:29:05.626Z,8.10
2018-10-07T21:31:34.370Z,8.10
2018-10-07T21:34:03.187Z,8.10
2018-10-07T21:36:32.023Z,8.10
2018-10-07T21:39:01.199Z,8.10
2018-10-07T21:41:29.862Z,8.10
2018-10-07T21:43:58.529Z,8.10
2018-10-07T21:46:27.336Z,8.10
2018-10-07T21:48:56.018Z,8.10
2018-10-07T21:51:24.706Z,8.10
2018-10-07T21:53:53.506Z,8.10
2018-10-07T21:56:22.225Z,8.10
2018-10-07T21:58:51.528Z,8.20
2018-10-07T22:01:20.395Z,8.20
2018-10-07T22:03:50.295Z,8.10
2018-10-07T22:06:19.349Z,8.10
2018-10-07T22:08:51.105Z,8.10
2018-10-07T22:11:20.697Z,8.10
2018-10-07T22:13:53.276Z,8.20
2018-10-07T22:16:21.993Z,8.20
2018-10-07T22:18:51.307Z,8.30
2018-10-07T22:21:20.136Z,8.30
2018-10-07T22:23:48.902Z,8.20
2018-10-07T22:26:17.592Z,8.20
2018-10-07T22:28:46.296Z,8.30
2018-10-07T22:31:15.689Z,8.20
2018-10-07T22:33:45.100Z,8.20
2018-10-07T22:36:14.798Z,8.20
2018-10-07T22:38:43.588Z,8.20
2018-10-07T22:41:12.421Z,8.10
2018-10-07T22:43:41.161Z,8.10
2018-10-07T22:46:10.943Z,8.00
2018-10-07T22:48:39.685Z,8.00
2018-10-07T22:51:08.352Z,8.00
2018-10-07T22:53:37.084Z,8.00
2018-10-07T22:56:06.351Z,7.90
2018-10-07T22:58:35.151Z,7.90
2018-10-07T23:01:03.907Z,7.90
2018-10-07T23:03:32.735Z,7.90
2018-10-07T23:06:01.422Z,7.90
2018-10-07T23:08:30.158Z,7.80
2018-10-07T23:10:58.913Z,7.80
2018-10-07T23:13:27.578Z,7.80
2018-10-07T23:15:56.436Z,7.80
2018-10-07T23:18:25.256Z,7.80
2018-10-07T23:20:54.162Z,7.80
2018-10-07T23:23:23.030Z,7.80
2018-10-07T23:25:54.278Z,7.70
2018-10-07T23:28:22.920Z,7.70
2018-10-07T23:30:51.712Z,7.70
2018-10-07T23:33:20.367Z,7.70
2018-10-07T23:35:49.205Z,7.70
2018-10-07T23:38:18.028Z,7.70
2018-10-07T23:40:48.444Z,7.60
2018-10-07T23:43:17.860Z,7.60
2018-10-07T23:45:46.652Z,7.60
2018-10-07T23:48:15.607Z,7.60
2018-10-07T23:50:44.293Z,7.60
2018-10-07T23:53:13.124Z,7.80
2018-10-07T23:55:41.890Z,7.90
2018-10-07T23:58:10.716Z,8.00
